createdAt,value
2019-03-27T00:04:31.607Z,4.3
2019-03-27T00:09:33.679Z,4.3
2019-03-27T00:14:36.116Z,4.3
2019-03-27T00:19:38.793Z,4.3
2019-03-27T00:24:41.083Z,4.4
2019-03-27T00:29:43.530Z,4.4
2019-03-27T00:34:46.263Z,4.4
2019-03-27T00:39:48.439Z,4.4
2019-03-27T00:44:50.927Z,4.4
2019-03-27T00:49:53.414Z,4.4
2019-03-27T00:54:55.877Z,4.4
2019-03-27T00:59:58.316Z,4.4
2019-03-27T01:05:01.044Z,4.4
2019-03-27T01:10:03.297Z,4.4
2019-03-27T01:15:05.662Z,4.4
2019-03-27T01:20:08.260Z,4.4
2019-03-27T01:25:10.621Z,4.4
2019-03-27T01:30:13.074Z,4.3
2019-03-27T01:35:15.839Z,4.4
2019-03-27T01:40:17.984Z,4.4
2019-03-27T01:45:20.449Z,4.5
2019-03-27T01:50:23.096Z,4.4
2019-03-27T01:55:25.364Z,4.5
2019-03-27T02:00:27.850Z,4.4
2019-03-27T02:05:30.608Z,4.4
2019-03-27T02:10:32.771Z,4.4
2019-03-27T02:15:35.362Z,4.5
2019-03-27T02:20:37.893Z,4.4
2019-03-27T02:25:40.133Z,4.4
2019-03-27T02:30:42.591Z,4.4
2019-03-27T02:35:45.383Z,4.4
2019-03-27T02:40:47.571Z,4.4
2019-03-27T02:45:50.002Z,4.5
2019-03-27T02:50:52.539Z,4.4
2019-03-27T02:55:54.906Z,4.4
2019-03-27T03:00:57.392Z,4.4
2019-03-27T03:06:00.191Z,4.4
2019-03-27T03:11:02.455Z,4.3
2019-03-27T03:16:04.780Z,4.3
2019-03-27T03:21:07.340Z,4.3
2019-03-27T03:26:09.699Z,4.3
2019-03-27T03:31:12.189Z,4.2
2019-03-27T03:36:14.624Z,4.2
2019-03-27T03:41:17.121Z,4.2
2019-03-27T03:46:19.612Z,4.2
2019-03-27T03:51:22.120Z,4.3
2019-03-27T03:56:24.493Z,4.3
2019-03-27T04:01:27.096Z,4.3
2019-03-27T04:06:29.693Z,4.3
2019-03-27T04:11:31.876Z,4.3
2019-03-27T04:16:34.348Z,4.3
2019-03-27T04:21:36.892Z,4.3
2019-03-27T04:26:39.287Z,4.4
2019-03-27T04:31:41.735Z,4.4
2019-03-27T04:36:44.483Z,4.5
2019-03-27T04:41:46.676Z,4.5
2019-03-27T04:46:49.118Z,4.5
2019-03-27T04:51:51.651Z,4.5
2019-03-27T04:56:54.054Z,4.5
2019-03-27T05:01:56.523Z,4.5
2019-03-27T05:06:59.260Z,4.5
2019-03-27T05:12:01.411Z,4.5
2019-03-27T05:17:03.873Z,4.5
2019-03-27T05:22:06.417Z,4.5
2019-03-27T05:27:08.843Z,4.4
2019-03-27T05:32:11.286Z,4.4
2019-03-27T05:37:14.022Z,4.4
2019-03-27T05:42:16.284Z,4.4
2019-03-27T05:47:18.657Z,4.4
2019-03-27T05:52:21.226Z,4.5
2019-03-27T05:57:23.584Z,4.5
2019-03-27T06:02:26.044Z,4.5
2019-03-27T06:07:28.791Z,4.5
2019-03-27T06:12:31.041Z,4.5
2019-03-27T06:17:33.510Z,4.6
2019-03-27T06:22:35.970Z,4.6
2019-03-27T06:27:38.340Z,4.6
2019-03-27T06:32:40.875Z,4.6
2019-03-27T06:37:43.754Z,4.6
2019-03-27T06:42:45.737Z,4.6
2019-03-27T06:47:48.191Z,4.7
2019-03-27T06:52:50.671Z,4.7
2019-03-27T06:57:53.130Z,4.8
2019-03-27T07:02:55.562Z,4.8
2019-03-27T07:07:58.056Z,4.8
2019-03-27T07:13:00.492Z,4.9
2019-03-27T07:18:02.966Z,4.9
2019-03-27T07:23:05.486Z,5
2019-03-27T07:28:07.915Z,5.1
2019-03-27T07:33:10.316Z,5
2019-03-27T07:38:13.199Z,5
2019-03-27T07:48:17.694Z,5.2
2019-03-27T07:53:22.409Z,5.3
2019-03-27T07:58:22.587Z,5.3
2019-03-27T08:03:25.055Z,5.4
2019-03-27T08:08:27.931Z,5.7
2019-03-27T08:13:30.066Z,5.7
2019-03-27T08:18:32.690Z,5.8
2019-03-27T08:23:35.047Z,5.8
2019-03-27T08:28:37.357Z,5.8
2019-03-27T08:33:39.859Z,5.8
2019-03-27T08:38:42.600Z,5.8
2019-03-27T08:43:44.719Z,5.7
2019-03-27T08:48:47.185Z,5.7
2019-03-27T08:53:49.750Z,5.6
2019-03-27T08:58:52.498Z,5.6
2019-03-27T09:03:54.591Z,5.5
2019-03-27T09:08:57.019Z,5.5
2019-03-27T09:13:59.492Z,5.7
2019-03-27T09:19:01.984Z,5.9
2019-03-27T09:24:04.472Z,6.1
2019-03-27T09:29:08.340Z,6.6
2019-03-27T09:34:09.303Z,7.5
2019-03-27T09:39:11.752Z,8.5
2019-03-27T09:44:14.215Z,9.1
2019-03-27T09:49:16.717Z,9.5
2019-03-27T09:54:19.149Z,9.4
2019-03-27T09:59:21.600Z,9.5
2019-03-27T10:04:24.141Z,10.2
2019-03-27T10:09:26.595Z,10.4
2019-03-27T10:14:28.988Z,10.4
2019-03-27T10:19:31.520Z,10.9
2019-03-27T10:24:33.871Z,11.4
2019-03-27T10:29:36.348Z,11.4
2019-03-27T10:34:38.871Z,12.5
2019-03-27T10:39:41.374Z,13.4
2019-03-27T10:44:43.741Z,13.9
2019-03-27T10:49:46.227Z,13.9
2019-03-27T10:54:48.625Z,14.2
2019-03-27T11:04:53.942Z,13.5
2019-03-27T11:09:56.121Z,13.1
2019-03-27T11:14:58.452Z,13
2019-03-27T11:20:00.936Z,12.7
2019-03-27T11:25:03.421Z,11.9
2019-03-27T11:30:05.848Z,12.2
2019-03-27T11:35:08.293Z,12.3
2019-03-27T11:40:10.773Z,11.9
2019-03-27T11:45:13.208Z,11.3
2019-03-27T11:50:15.655Z,10.9
2019-03-27T11:55:18.207Z,10.8
2019-03-27T12:00:20.575Z,10.9
2019-03-27T12:05:23.105Z,10.8
2019-03-27T12:10:25.534Z,10.3
2019-03-27T12:15:27.941Z,10.2
2019-03-27T12:20:30.429Z,10.2
2019-03-27T12:25:32.930Z,10.4
2019-03-27T12:30:35.342Z,10.6
2019-03-27T12:35:37.799Z,10.4
2019-03-27T12:40:40.244Z,10.3
2019-03-27T12:45:42.756Z,10.9
2019-03-27T12:50:45.160Z,12.2
2019-03-27T12:55:47.685Z,13
2019-03-27T13:00:50.060Z,13.1
2019-03-27T13:05:52.545Z,12.5
2019-03-27T13:10:54.997Z,12.2
2019-03-27T13:15:57.425Z,11.9
2019-03-27T13:20:59.986Z,11.9
2019-03-27T13:26:02.461Z,12.1
2019-03-27T13:31:04.821Z,12.2
2019-03-27T13:36:07.325Z,12
2019-03-27T13:41:09.781Z,12
2019-03-27T13:46:12.183Z,11.8
2019-03-27T13:51:14.818Z,11.7
2019-03-27T13:56:17.109Z,11.7
2019-03-27T14:01:19.656Z,11.7
2019-03-27T14:06:22.009Z,11.8
2019-03-27T14:11:24.466Z,11.9
2019-03-27T14:16:26.934Z,11.9
2019-03-27T14:21:29.388Z,11.9
2019-03-27T14:26:44.259Z,11.8
2019-03-27T14:31:34.323Z,11.8
2019-03-27T14:36:36.972Z,11.8
2019-03-27T14:41:39.216Z,11.8
2019-03-27T14:46:41.707Z,11.8
2019-03-27T14:51:44.239Z,11.9
2019-03-27T14:56:46.794Z,12
2019-03-27T15:01:49.072Z,12.1
2019-03-27T15:06:51.766Z,12.2
2019-03-27T15:11:54.000Z,12.1
2019-03-27T15:16:56.485Z,11.8
2019-03-27T15:21:58.879Z,11.5
2019-03-27T15:27:01.375Z,11.3
2019-03-27T15:32:03.872Z,11.3
2019-03-27T15:37:06.286Z,11.4
2019-03-27T15:42:09.286Z,11.3
2019-03-27T15:47:11.155Z,11.1
2019-03-27T15:52:13.704Z,10.8
2019-03-27T15:57:16.066Z,10.6
2019-03-27T16:02:18.897Z,10.3
2019-03-27T16:07:20.971Z,10
2019-03-27T16:12:23.460Z,9.8
2019-03-27T16:17:25.914Z,9.6
2019-03-27T16:22:28.408Z,9.4
2019-03-27T16:27:30.894Z,9.2
2019-03-27T16:32:33.608Z,9
2019-03-27T16:37:35.751Z,8.8
2019-03-27T16:42:38.189Z,8.6
2019-03-27T16:47:40.671Z,8.4
2019-03-27T16:52:43.102Z,8.3
2019-03-27T16:57:45.579Z,8.2
2019-03-27T17:02:48.361Z,8.1
2019-03-27T17:07:50.474Z,8
2019-03-27T17:12:52.940Z,8
2019-03-27T17:17:55.405Z,8
2019-03-27T17:22:57.846Z,7.9
2019-03-27T17:28:00.298Z,7.9
2019-03-27T17:33:02.767Z,7.9
2019-03-27T17:38:05.250Z,7.8
2019-03-27T17:43:07.734Z,7.7
2019-03-27T17:48:10.138Z,7.7
2019-03-27T17:53:12.582Z,7.7
2019-03-27T17:58:15.343Z,7.6
2019-03-27T18:03:17.629Z,7.5
2019-03-27T18:08:20.023Z,7.5
2019-03-27T18:13:22.481Z,7.5
2019-03-27T18:18:24.890Z,7.4
2019-03-27T18:23:27.344Z,7.4
2019-03-27T18:28:30.145Z,7.3
2019-03-27T18:33:33.985Z,7.3
2019-03-27T18:38:34.765Z,7.3
2019-03-27T18:43:37.243Z,7.2
2019-03-27T18:48:39.985Z,7.2
2019-03-27T18:53:42.082Z,7.2
2019-03-27T18:58:45.023Z,7.1
2019-03-27T19:03:47.042Z,7.2
2019-03-27T19:08:49.457Z,7.1
2019-03-27T19:13:51.953Z,7.2
2019-03-27T19:18:54.477Z,7.1
2019-03-27T19:23:56.933Z,7.1
2019-03-27T19:28:59.678Z,7.1
2019-03-27T19:34:01.888Z,7
2019-03-27T19:39:04.277Z,7.1
2019-03-27T19:44:06.708Z,7
2019-03-27T19:49:09.147Z,6.9
2019-03-27T19:54:11.610Z,6.8
2019-03-27T19:59:14.335Z,6.7
2019-03-27T20:04:16.571Z,6.7
2019-03-27T20:09:19.006Z,6.6
2019-03-27T20:14:21.434Z,6.6
2019-03-27T20:19:23.899Z,6.4
2019-03-27T20:24:40.056Z,6.4
2019-03-27T20:29:29.113Z,6.2
2019-03-27T20:34:31.377Z,6.1
2019-03-27T20:39:33.747Z,6
2019-03-27T20:44:36.200Z,6
2019-03-27T20:49:38.734Z,6.1
2019-03-27T20:54:53.828Z,6.1
2019-03-27T20:59:43.880Z,6.2
2019-03-27T21:04:46.029Z,6.2
2019-03-27T21:09:48.471Z,6.3
2019-03-27T21:14:51.028Z,6.4
2019-03-27T21:19:53.397Z,6.5
2019-03-27T21:25:07.855Z,6.5
2019-03-27T21:30:03.364Z,6.5
2019-03-27T21:40:03.267Z,6.6
2019-03-27T21:45:05.720Z,6.6
2019-03-27T21:55:21.719Z,6.6
2019-03-27T22:00:13.048Z,6.6
2019-03-27T22:05:15.498Z,6.6
2019-03-27T22:10:17.970Z,6.7
2019-03-27T22:15:20.420Z,6.6
2019-03-27T22:20:22.922Z,6.7
2019-03-27T22:25:35.147Z,6.7
2019-03-27T22:30:27.808Z,6.7
2019-03-27T22:35:30.250Z,6.6
2019-03-27T22:40:32.765Z,6.6
2019-03-27T22:45:35.161Z,6.5
2019-03-27T22:50:37.629Z,6.5
2019-03-27T22:55:49.350Z,6.4
2019-03-27T23:00:42.588Z,6.4
2019-03-27T23:05:45.054Z,6.5
2019-03-27T23:10:47.520Z,6.5
2019-03-27T23:15:49.932Z,6.5
2019-03-27T23:20:52.385Z,6.4
2019-03-27T23:26:02.726Z,6.4
2019-03-27T23:30:57.285Z,6.3
2019-03-27T23:35:59.730Z,6.4
2019-03-27T23:41:02.233Z,6.4
2019-03-27T23:46:04.769Z,6.4
2019-03-27T23:51:07.124Z,6.5
